sensor_id;sensor_type;location;lat;lon;timestamp;P1;durP1;ratioP1;P2;durP2;ratioP2
51660;SDS011;37741;49.748;8.490;2023-08-06T00:01:50;3.50;;;2.00;;
51660;SDS011;37741;49.748;8.490;2023-08-06T00:04:16;2.58;;;1.85;;
51660;SDS011;37741;49.748;8.490;2023-08-06T00:06:41;3.75;;;2.47;;
51660;SDS011;37741;49.748;8.490;2023-08-06T00:09:07;3.15;;;2.00;;
51660;SDS011;37741;49.748;8.490;2023-08-06T00:11:33;3.55;;;2.38;;
51660;SDS011;37741;49.748;8.490;2023-08-06T00:13:59;3.80;;;2.10;;
51660;SDS011;37741;49.748;8.490;2023-08-06T00:16:25;3.28;;;2.03;;
51660;SDS011;37741;49.748;8.490;2023-08-06T00:18:50;2.40;;;1.67;;
51660;SDS011;37741;49.748;8.490;2023-08-06T00:21:16;4.20;;;2.17;;
51660;SDS011;37741;49.748;8.490;2023-08-06T00:23:41;3.35;;;2.13;;
51660;SDS011;37741;49.748;8.490;2023-08-06T00:26:07;3.10;;;2.10;;
51660;SDS011;37741;49.748;8.490;2023-08-06T00:28:32;3.45;;;2.28;;
51660;SDS011;37741;49.748;8.490;2023-08-06T00:30:58;4.38;;;2.22;;
51660;SDS011;37741;49.748;8.490;2023-08-06T00:33:24;3.45;;;2.20;;
51660;SDS011;37741;49.748;8.490;2023-08-06T00:35:50;3.20;;;2.10;;
51660;SDS011;37741;49.748;8.490;2023-08-06T00:38:16;3.25;;;2.13;;
51660;SDS011;37741;49.748;8.490;2023-08-06T00:40:42;3.80;;;2.10;;
51660;SDS011;37741;49.748;8.490;2023-08-06T00:43:08;6.00;;;2.25;;
51660;SDS011;37741;49.748;8.490;2023-08-06T00:45:34;4.95;;;2.40;;
51660;SDS011;37741;49.748;8.490;2023-08-06T00:48:01;2.85;;;1.90;;
51660;SDS011;37741;49.748;8.490;2023-08-06T00:50:28;3.90;;;2.42;;
51660;SDS011;37741;49.748;8.490;2023-08-06T00:52:54;3.42;;;2.00;;
51660;SDS011;37741;49.748;8.490;2023-08-06T00:55:19;3.63;;;2.15;;
51660;SDS011;37741;49.748;8.490;2023-08-06T00:57:45;3.58;;;2.40;;
51660;SDS011;37741;49.748;8.490;2023-08-06T01:00:11;2.58;;;1.92;;
51660;SDS011;37741;49.748;8.490;2023-08-06T01:02:37;3.08;;;2.40;;
51660;SDS011;37741;49.748;8.490;2023-08-06T01:05:03;3.80;;;2.10;;
51660;SDS011;37741;49.748;8.490;2023-08-06T01:07:33;3.67;;;1.90;;
51660;SDS011;37741;49.748;8.490;2023-08-06T01:16:02;5.15;;;2.10;;
51660;SDS011;37741;49.748;8.490;2023-08-06T01:18:30;3.00;;;2.10;;
51660;SDS011;37741;49.748;8.490;2023-08-06T01:20:56;4.53;;;1.90;;
51660;SDS011;37741;49.748;8.490;2023-08-06T01:23:22;2.83;;;1.95;;
51660;SDS011;37741;49.748;8.490;2023-08-06T01:28:56;3.63;;;1.88;;
51660;SDS011;37741;49.748;8.490;2023-08-06T01:31:37;4.88;;;2.45;;
51660;SDS011;37741;49.748;8.490;2023-08-06T01:34:07;3.75;;;2.35;;
51660;SDS011;37741;49.748;8.490;2023-08-06T01:36:37;8.10;;;2.08;;
51660;SDS011;37741;49.748;8.490;2023-08-06T01:39:04;3.42;;;2.00;;
51660;SDS011;37741;49.748;8.490;2023-08-06T01:41:30;3.47;;;2.15;;
51660;SDS011;37741;49.748;8.490;2023-08-06T01:43:56;2.97;;;2.03;;
51660;SDS011;37741;49.748;8.490;2023-08-06T01:46:21;2.80;;;1.92;;
51660;SDS011;37741;49.748;8.490;2023-08-06T01:48:47;8.10;;;2.08;;
51660;SDS011;37741;49.748;8.490;2023-08-06T01:51:13;2.95;;;2.10;;
51660;SDS011;37741;49.748;8.490;2023-08-06T01:53:38;3.80;;;2.33;;
51660;SDS011;37741;49.748;8.490;2023-08-06T01:56:04;5.70;;;2.97;;
51660;SDS011;37741;49.748;8.490;2023-08-06T01:58:29;4.20;;;2.17;;
51660;SDS011;37741;49.748;8.490;2023-08-06T02:00:55;4.97;;;2.08;;
51660;SDS011;37741;49.748;8.490;2023-08-06T02:03:20;3.95;;;2.38;;
51660;SDS011;37741;49.748;8.490;2023-08-06T02:05:46;4.03;;;2.15;;
51660;SDS011;37741;49.748;8.490;2023-08-06T02:08:12;4.10;;;2.15;;
51660;SDS011;37741;49.748;8.490;2023-08-06T02:10:37;3.22;;;1.80;;
51660;SDS011;37741;49.748;8.490;2023-08-06T02:13:03;3.50;;;2.30;;
51660;SDS011;37741;49.748;8.490;2023-08-06T02:15:28;3.70;;;2.10;;
51660;SDS011;37741;49.748;8.490;2023-08-06T02:17:54;3.63;;;2.05;;
51660;SDS011;37741;49.748;8.490;2023-08-06T02:20:19;5.05;;;2.20;;
51660;SDS011;37741;49.748;8.490;2023-08-06T02:22:45;2.90;;;1.90;;
51660;SDS011;37741;49.748;8.490;2023-08-06T02:25:11;4.35;;;2.40;;
51660;SDS011;37741;49.748;8.490;2023-08-06T02:27:37;3.70;;;2.47;;
51660;SDS011;37741;49.748;8.490;2023-08-06T02:30:03;3.80;;;2.00;;
51660;SDS011;37741;49.748;8.490;2023-08-06T02:32:29;3.67;;;1.77;;
51660;SDS011;37741;49.748;8.490;2023-08-06T02:34:56;3.60;;;2.10;;
51660;SDS011;37741;49.748;8.490;2023-08-06T02:37:22;3.75;;;2.00;;
51660;SDS011;37741;49.748;8.490;2023-08-06T02:39:48;2.95;;;1.90;;
51660;SDS011;37741;49.748;8.490;2023-08-06T02:42:13;3.15;;;2.03;;
51660;SDS011;37741;49.748;8.490;2023-08-06T02:44:39;2.72;;;1.90;;
51660;SDS011;37741;49.748;8.490;2023-08-06T02:47:04;8.27;;;2.28;;
51660;SDS011;37741;49.748;8.490;2023-08-06T02:49:30;4.30;;;2.30;;
51660;SDS011;37741;49.748;8.490;2023-08-06T02:51:56;3.22;;;2.10;;
51660;SDS011;37741;49.748;8.490;2023-08-06T02:54:21;4.22;;;2.20;;
51660;SDS011;37741;49.748;8.490;2023-08-06T02:56:47;7.72;;;2.22;;
51660;SDS011;37741;49.748;8.490;2023-08-06T02:59:13;2.75;;;1.75;;
51660;SDS011;37741;49.748;8.490;2023-08-06T03:01:38;3.58;;;2.08;;
51660;SDS011;37741;49.748;8.490;2023-08-06T03:04:04;4.63;;;1.83;;
51660;SDS011;37741;49.748;8.490;2023-08-06T03:06:30;3.05;;;2.00;;
51660;SDS011;37741;49.748;8.490;2023-08-06T03:08:56;3.75;;;2.10;;
51660;SDS011;37741;49.748;8.490;2023-08-06T03:11:21;2.42;;;1.50;;
51660;SDS011;37741;49.748;8.490;2023-08-06T03:13:47;2.95;;;1.60;;
51660;SDS011;37741;49.748;8.490;2023-08-06T03:16:13;3.17;;;1.95;;
51660;SDS011;37741;49.748;8.490;2023-08-06T03:18:39;2.47;;;1.70;;
51660;SDS011;37741;49.748;8.490;2023-08-06T03:21:04;3.63;;;2.08;;
51660;SDS011;37741;49.748;8.490;2023-08-06T03:23:30;2.67;;;1.83;;
51660;SDS011;37741;49.748;8.490;2023-08-06T03:25:56;3.28;;;2.10;;
51660;SDS011;37741;49.748;8.490;2023-08-06T03:28:25;4.43;;;2.10;;
51660;SDS011;37741;49.748;8.490;2023-08-06T03:30:58;4.80;;;2.13;;
51660;SDS011;37741;49.748;8.490;2023-08-06T03:33:25;4.00;;;2.08;;
51660;SDS011;37741;49.748;8.490;2023-08-06T03:35:50;3.88;;;1.75;;
51660;SDS011;37741;49.748;8.490;2023-08-06T03:38:16;2.88;;;1.83;;
51660;SDS011;37741;49.748;8.490;2023-08-06T03:40:41;3.20;;;1.67;;
51660;SDS011;37741;49.748;8.490;2023-08-06T03:43:08;3.17;;;2.00;;
51660;SDS011;37741;49.748;8.490;2023-08-06T03:45:33;2.63;;;1.50;;
51660;SDS011;37741;49.748;8.490;2023-08-06T03:47:59;3.55;;;2.00;;
51660;SDS011;37741;49.748;8.490;2023-08-06T03:50:25;5.35;;;1.85;;
51660;SDS011;37741;49.748;8.490;2023-08-06T03:52:50;4.28;;;1.75;;
51660;SDS011;37741;49.748;8.490;2023-08-06T03:55:16;8.88;;;3.42;;
51660;SDS011;37741;49.748;8.490;2023-08-06T03:57:41;2.60;;;1.70;;
51660;SDS011;37741;49.748;8.490;2023-08-06T04:00:07;3.38;;;2.17;;
51660;SDS011;37741;49.748;8.490;2023-08-06T04:02:33;2.65;;;1.98;;
51660;SDS011;37741;49.748;8.490;2023-08-06T04:04:59;4.45;;;2.30;;
51660;SDS011;37741;49.748;8.490;2023-08-06T04:07:25;2.92;;;2.00;;
51660;SDS011;37741;49.748;8.490;2023-08-06T04:09:58;3.80;;;1.95;;
51660;SDS011;37741;49.748;8.490;2023-08-06T04:12:25;3.63;;;2.30;;
51660;SDS011;37741;49.748;8.490;2023-08-06T04:14:51;3.35;;;2.03;;
51660;SDS011;37741;49.748;8.490;2023-08-06T04:17:17;3.20;;;1.83;;
51660;SDS011;37741;49.748;8.490;2023-08-06T04:19:45;3.67;;;2.28;;
51660;SDS011;37741;49.748;8.490;2023-08-06T04:22:12;5.47;;;2.30;;
51660;SDS011;37741;49.748;8.490;2023-08-06T04:24:38;3.65;;;1.88;;
51660;SDS011;37741;49.748;8.490;2023-08-06T04:27:04;3.22;;;2.08;;
51660;SDS011;37741;49.748;8.490;2023-08-06T04:29:29;8.40;;;2.28;;
51660;SDS011;37741;49.748;8.490;2023-08-06T04:31:55;3.95;;;2.00;;
51660;SDS011;37741;49.748;8.490;2023-08-06T04:34:21;2.60;;;1.75;;
51660;SDS011;37741;49.748;8.490;2023-08-06T04:36:46;2.42;;;1.50;;
51660;SDS011;37741;49.748;8.490;2023-08-06T04:39:13;3.95;;;1.77;;
51660;SDS011;37741;49.748;8.490;2023-08-06T04:41:38;3.03;;;1.70;;
51660;SDS011;37741;49.748;8.490;2023-08-06T04:44:04;3.03;;;1.60;;
51660;SDS011;37741;49.748;8.490;2023-08-06T04:46:30;2.70;;;1.48;;
51660;SDS011;37741;49.748;8.490;2023-08-06T04:48:55;2.75;;;1.70;;
51660;SDS011;37741;49.748;8.490;2023-08-06T04:51:21;4.55;;;1.75;;
51660;SDS011;37741;49.748;8.490;2023-08-06T04:53:46;2.28;;;1.40;;
51660;SDS011;37741;49.748;8.490;2023-08-06T04:56:12;3.13;;;1.48;;
51660;SDS011;37741;49.748;8.490;2023-08-06T04:58:38;3.35;;;1.38;;
51660;SDS011;37741;49.748;8.490;2023-08-06T05:01:03;2.13;;;1.35;;
51660;SDS011;37741;49.748;8.490;2023-08-06T05:03:29;2.03;;;1.17;;
51660;SDS011;37741;49.748;8.490;2023-08-06T05:05:54;2.63;;;1.48;;
51660;SDS011;37741;49.748;8.490;2023-08-06T05:08:20;4.15;;;1.50;;
51660;SDS011;37741;49.748;8.490;2023-08-06T05:10:45;2.90;;;1.35;;
51660;SDS011;37741;49.748;8.490;2023-08-06T05:13:11;2.60;;;1.38;;
51660;SDS011;37741;49.748;8.490;2023-08-06T05:15:37;1.85;;;1.02;;
51660;SDS011;37741;49.748;8.490;2023-08-06T05:18:04;2.10;;;1.38;;
51660;SDS011;37741;49.748;8.490;2023-08-06T05:20:30;2.58;;;1.63;;
51660;SDS011;37741;49.748;8.490;2023-08-06T05:22:56;3.28;;;1.45;;
51660;SDS011;37741;49.748;8.490;2023-08-06T05:25:21;3.63;;;1.15;;
51660;SDS011;37741;49.748;8.490;2023-08-06T05:27:47;1.95;;;1.15;;
51660;SDS011;37741;49.748;8.490;2023-08-06T05:30:12;3.10;;;1.85;;
51660;SDS011;37741;49.748;8.490;2023-08-06T05:32:38;2.92;;;1.33;;
51660;SDS011;37741;49.748;8.490;2023-08-06T05:35:04;2.70;;;1.30;;
51660;SDS011;37741;49.748;8.490;2023-08-06T05:37:30;3.33;;;1.40;;
51660;SDS011;37741;49.748;8.490;2023-08-06T05:39:55;2.17;;;1.17;;
51660;SDS011;37741;49.748;8.490;2023-08-06T05:42:21;2.15;;;1.10;;
51660;SDS011;37741;49.748;8.490;2023-08-06T05:44:46;2.20;;;1.05;;
51660;SDS011;37741;49.748;8.490;2023-08-06T05:47:12;4.05;;;1.50;;
51660;SDS011;37741;49.748;8.490;2023-08-06T05:49:38;2.80;;;1.02;;
51660;SDS011;37741;49.748;8.490;2023-08-06T05:52:03;1.90;;;1.00;;
51660;SDS011;37741;49.748;8.490;2023-08-06T05:54:31;2.17;;;1.00;;
51660;SDS011;37741;49.748;8.490;2023-08-06T05:56:57;2.17;;;1.42;;
51660;SDS011;37741;49.748;8.490;2023-08-06T05:59:22;1.83;;;1.00;;
51660;SDS011;37741;49.748;8.490;2023-08-06T06:01:48;1.88;;;1.02;;
51660;SDS011;37741;49.748;8.490;2023-08-06T06:04:13;1.70;;;1.00;;
51660;SDS011;37741;49.748;8.490;2023-08-06T06:06:39;2.92;;;1.27;;
51660;SDS011;37741;49.748;8.490;2023-08-06T06:09:06;2.03;;;0.90;;
51660;SDS011;37741;49.748;8.490;2023-08-06T06:11:32;2.15;;;0.90;;
51660;SDS011;37741;49.748;8.490;2023-08-06T06:13:58;5.20;;;2.50;;
51660;SDS011;37741;49.748;8.490;2023-08-06T06:16:23;2.40;;;1.05;;
51660;SDS011;37741;49.748;8.490;2023-08-06T06:18:49;1.88;;;0.80;;
51660;SDS011;37741;49.748;8.490;2023-08-06T06:21:14;2.13;;;1.00;;
51660;SDS011;37741;49.748;8.490;2023-08-06T06:23:40;1.55;;;0.82;;
51660;SDS011;37741;49.748;8.490;2023-08-06T06:26:06;2.03;;;1.00;;
51660;SDS011;37741;49.748;8.490;2023-08-06T06:28:31;2.40;;;0.90;;
51660;SDS011;37741;49.748;8.490;2023-08-06T06:31:00;1.65;;;0.80;;
51660;SDS011;37741;49.748;8.490;2023-08-06T06:33:27;1.67;;;0.70;;
51660;SDS011;37741;49.748;8.490;2023-08-06T06:35:52;2.05;;;0.88;;
51660;SDS011;37741;49.748;8.490;2023-08-06T06:38:18;2.70;;;1.20;;
51660;SDS011;37741;49.748;8.490;2023-08-06T06:40:44;2.83;;;0.95;;
51660;SDS011;37741;49.748;8.490;2023-08-06T06:43:18;2.13;;;0.90;;
51660;SDS011;37741;49.748;8.490;2023-08-06T06:45:43;2.45;;;0.82;;
51660;SDS011;37741;49.748;8.490;2023-08-06T06:48:09;0.98;;;0.60;;
51660;SDS011;37741;49.748;8.490;2023-08-06T06:50:35;2.28;;;0.70;;
51660;SDS011;37741;49.748;8.490;2023-08-06T06:53:01;1.80;;;0.80;;
51660;SDS011;37741;49.748;8.490;2023-08-06T06:55:26;1.95;;;0.70;;
51660;SDS011;37741;49.748;8.490;2023-08-06T06:57:52;3.15;;;0.98;;
51660;SDS011;37741;49.748;8.490;2023-08-06T07:00:18;2.38;;;1.00;;
51660;SDS011;37741;49.748;8.490;2023-08-06T07:02:43;1.20;;;0.50;;
51660;SDS011;37741;49.748;8.490;2023-08-06T07:05:09;1.50;;;0.75;;
51660;SDS011;37741;49.748;8.490;2023-08-06T07:07:35;1.00;;;0.50;;
51660;SDS011;37741;49.748;8.490;2023-08-06T07:10:02;5.18;;;0.70;;
51660;SDS011;37741;49.748;8.490;2023-08-06T07:12:29;3.38;;;0.40;;
51660;SDS011;37741;49.748;8.490;2023-08-06T07:14:54;1.60;;;0.60;;
51660;SDS011;37741;49.748;8.490;2023-08-06T07:17:20;4.10;;;0.73;;
51660;SDS011;37741;49.748;8.490;2023-08-06T07:19:45;1.48;;;0.70;;
51660;SDS011;37741;49.748;8.490;2023-08-06T07:22:11;0.75;;;0.47;;
51660;SDS011;37741;49.748;8.490;2023-08-06T07:24:37;1.90;;;0.88;;
51660;SDS011;37741;49.748;8.490;2023-08-06T07:27:02;1.63;;;0.63;;
51660;SDS011;37741;49.748;8.490;2023-08-06T07:29:28;1.35;;;0.50;;
51660;SDS011;37741;49.748;8.490;2023-08-06T07:31:54;1.38;;;0.60;;
51660;SDS011;37741;49.748;8.490;2023-08-06T07:34:20;1.63;;;0.55;;
51660;SDS011;37741;49.748;8.490;2023-08-06T07:36:46;2.65;;;0.80;;
51660;SDS011;37741;49.748;8.490;2023-08-06T07:39:12;1.20;;;0.60;;
51660;SDS011;37741;49.748;8.490;2023-08-06T07:41:38;0.85;;;0.50;;
51660;SDS011;37741;49.748;8.490;2023-08-06T07:44:04;3.05;;;0.60;;
51660;SDS011;37741;49.748;8.490;2023-08-06T07:46:29;0.88;;;0.40;;
51660;SDS011;37741;49.748;8.490;2023-08-06T07:48:55;1.00;;;0.40;;
51660;SDS011;37741;49.748;8.490;2023-08-06T07:51:20;1.70;;;0.50;;
51660;SDS011;37741;49.748;8.490;2023-08-06T07:53:46;1.20;;;0.50;;
51660;SDS011;37741;49.748;8.490;2023-08-06T07:56:12;1.08;;;0.60;;
51660;SDS011;37741;49.748;8.490;2023-08-06T07:58:37;0.95;;;0.47;;
51660;SDS011;37741;49.748;8.490;2023-08-06T08:01:03;2.97;;;0.98;;
51660;SDS011;37741;49.748;8.490;2023-08-06T08:03:29;1.13;;;0.45;;
51660;SDS011;37741;49.748;8.490;2023-08-06T08:05:54;1.33;;;0.55;;
51660;SDS011;37741;49.748;8.490;2023-08-06T08:08:23;0.95;;;0.43;;
51660;SDS011;37741;49.748;8.490;2023-08-06T08:10:49;0.57;;;0.30;;
51660;SDS011;37741;49.748;8.490;2023-08-06T08:13:14;1.27;;;0.50;;
51660;SDS011;37741;49.748;8.490;2023-08-06T08:15:40;0.73;;;0.40;;
51660;SDS011;37741;49.748;8.490;2023-08-06T08:18:06;1.23;;;0.50;;
51660;SDS011;37741;49.748;8.490;2023-08-06T08:20:31;1.08;;;0.47;;
51660;SDS011;37741;49.748;8.490;2023-08-06T08:23:01;0.98;;;0.40;;
51660;SDS011;37741;49.748;8.490;2023-08-06T08:25:27;1.95;;;0.68;;
51660;SDS011;37741;49.748;8.490;2023-08-06T08:27:53;0.85;;;0.45;;
51660;SDS011;37741;49.748;8.490;2023-08-06T08:30:20;0.57;;;0.30;;
51660;SDS011;37741;49.748;8.490;2023-08-06T08:32:46;0.98;;;0.40;;
51660;SDS011;37741;49.748;8.490;2023-08-06T08:35:13;1.13;;;0.38;;
51660;SDS011;37741;49.748;8.490;2023-08-06T08:37:39;0.73;;;0.35;;
51660;SDS011;37741;49.748;8.490;2023-08-06T08:40:08;1.00;;;0.40;;
51660;SDS011;37741;49.748;8.490;2023-08-06T08:42:34;0.75;;;0.30;;
51660;SDS011;37741;49.748;8.490;2023-08-06T08:45:01;0.47;;;0.20;;
51660;SDS011;37741;49.748;8.490;2023-08-06T08:47:29;0.80;;;0.30;;
51660;SDS011;37741;49.748;8.490;2023-08-06T08:49:55;0.50;;;0.30;;
51660;SDS011;37741;49.748;8.490;2023-08-06T08:52:22;1.15;;;0.25;;
51660;SDS011;37741;49.748;8.490;2023-08-06T08:54:50;0.77;;;0.45;;
51660;SDS011;37741;49.748;8.490;2023-08-06T08:57:17;0.50;;;0.30;;
51660;SDS011;37741;49.748;8.490;2023-08-06T08:59:43;0.77;;;0.40;;
51660;SDS011;37741;49.748;8.490;2023-08-06T09:02:10;0.95;;;0.30;;
51660;SDS011;37741;49.748;8.490;2023-08-06T09:04:37;0.70;;;0.30;;
51660;SDS011;37741;49.748;8.490;2023-08-06T09:07:05;1.02;;;0.38;;
51660;SDS011;37741;49.748;8.490;2023-08-06T09:09:33;1.50;;;0.57;;
51660;SDS011;37741;49.748;8.490;2023-08-06T09:12:02;0.57;;;0.30;;
51660;SDS011;37741;49.748;8.490;2023-08-06T09:14:39;1.42;;;0.60;;
51660;SDS011;37741;49.748;8.490;2023-08-06T09:17:05;0.65;;;0.30;;
51660;SDS011;37741;49.748;8.490;2023-08-06T09:19:31;1.30;;;0.40;;
51660;SDS011;37741;49.748;8.490;2023-08-06T09:21:57;1.67;;;0.55;;
51660;SDS011;37741;49.748;8.490;2023-08-06T09:24:24;0.80;;;0.30;;
51660;SDS011;37741;49.748;8.490;2023-08-06T09:26:51;1.42;;;0.50;;
51660;SDS011;37741;49.748;8.490;2023-08-06T09:29:16;0.95;;;0.40;;
51660;SDS011;37741;49.748;8.490;2023-08-06T09:31:43;0.88;;;0.30;;
51660;SDS011;37741;49.748;8.490;2023-08-06T09:34:14;0.82;;;0.30;;
51660;SDS011;37741;49.748;8.490;2023-08-06T09:36:49;0.93;;;0.28;;
51660;SDS011;37741;49.748;8.490;2023-08-06T09:39:22;0.20;;;0.20;;
51660;SDS011;37741;49.748;8.490;2023-08-06T09:41:58;2.30;;;0.40;;
51660;SDS011;37741;49.748;8.490;2023-08-06T09:44:27;1.10;;;0.40;;
51660;SDS011;37741;49.748;8.490;2023-08-06T09:46:57;0.85;;;0.40;;
51660;SDS011;37741;49.748;8.490;2023-08-06T09:49:42;2.28;;;0.57;;
51660;SDS011;37741;49.748;8.490;2023-08-06T09:52:10;0.70;;;0.30;;
51660;SDS011;37741;49.748;8.490;2023-08-06T09:54:40;1.30;;;0.40;;
51660;SDS011;37741;49.748;8.490;2023-08-06T09:57:08;0.77;;;0.32;;
51660;SDS011;37741;49.748;8.490;2023-08-06T09:59:34;0.52;;;0.20;;
51660;SDS011;37741;49.748;8.490;2023-08-06T10:02:02;0.50;;;0.30;;
51660;SDS011;37741;49.748;8.490;2023-08-06T10:04:31;1.02;;;0.30;;
51660;SDS011;37741;49.748;8.490;2023-08-06T10:06:57;0.82;;;0.32;;
51660;SDS011;37741;49.748;8.490;2023-08-06T10:09:24;0.80;;;0.30;;
51660;SDS011;37741;49.748;8.490;2023-08-06T10:11:50;0.90;;;0.38;;
51660;SDS011;37741;49.748;8.490;2023-08-06T10:14:20;2.42;;;0.45;;
51660;SDS011;37741;49.748;8.490;2023-08-06T10:16:49;0.57;;;0.20;;
51660;SDS011;37741;49.748;8.490;2023-08-06T10:19:16;0.50;;;0.28;;
51660;SDS011;37741;49.748;8.490;2023-08-06T10:22:07;1.13;;;0.30;;
51660;SDS011;37741;49.748;8.490;2023-08-06T10:24:45;0.63;;;0.40;;
51660;SDS011;37741;49.748;8.490;2023-08-06T10:27:39;0.88;;;0.30;;
51660;SDS011;37741;49.748;8.490;2023-08-06T10:30:29;0.50;;;0.20;;
51660;SDS011;37741;49.748;8.490;2023-08-06T10:32:57;0.32;;;0.30;;
51660;SDS011;37741;49.748;8.490;2023-08-06T10:38:10;0.10;;;0.10;;
51660;SDS011;37741;49.748;8.490;2023-08-06T10:40:40;0.30;;;0.20;;
51660;SDS011;37741;49.748;8.490;2023-08-06T10:43:24;0.95;;;0.30;;
51660;SDS011;37741;49.748;8.490;2023-08-06T10:45:51;0.95;;;0.30;;
51660;SDS011;37741;49.748;8.490;2023-08-06T10:50:59;0.57;;;0.20;;
51660;SDS011;37741;49.748;8.490;2023-08-06T10:53:25;0.25;;;0.22;;
51660;SDS011;37741;49.748;8.490;2023-08-06T10:55:51;0.22;;;0.20;;
51660;SDS011;37741;49.748;8.490;2023-08-06T10:58:17;0.63;;;0.20;;
51660;SDS011;37741;49.748;8.490;2023-08-06T11:00:42;0.30;;;0.20;;
51660;SDS011;37741;49.748;8.490;2023-08-06T11:03:08;0.50;;;0.20;;
51660;SDS011;37741;49.748;8.490;2023-08-06T11:05:34;0.43;;;0.20;;
51660;SDS011;37741;49.748;8.490;2023-08-06T11:08:00;0.38;;;0.20;;
51660;SDS011;37741;49.748;8.490;2023-08-06T11:10:26;1.02;;;0.35;;
51660;SDS011;37741;49.748;8.490;2023-08-06T11:12:52;0.10;;;0.10;;
51660;SDS011;37741;49.748;8.490;2023-08-06T11:15:19;0.82;;;0.30;;
51660;SDS011;37741;49.748;8.490;2023-08-06T11:17:45;0.30;;;0.20;;
51660;SDS011;37741;49.748;8.490;2023-08-06T11:20:11;0.63;;;0.22;;
51660;SDS011;37741;49.748;8.490;2023-08-06T11:22:37;0.70;;;0.20;;
51660;SDS011;37741;49.748;8.490;2023-08-06T11:25:04;0.55;;;0.30;;
51660;SDS011;37741;49.748;8.490;2023-08-06T11:27:31;0.60;;;0.20;;
51660;SDS011;37741;49.748;8.490;2023-08-06T11:29:56;0.68;;;0.20;;
51660;SDS011;37741;49.748;8.490;2023-08-06T11:32:22;0.20;;;0.10;;
51660;SDS011;37741;49.748;8.490;2023-08-06T11:34:48;0.20;;;0.20;;
51660;SDS011;37741;49.748;8.490;2023-08-06T11:37:14;0.38;;;0.20;;
51660;SDS011;37741;49.748;8.490;2023-08-06T11:39:39;0.10;;;0.10;;
51660;SDS011;37741;49.748;8.490;2023-08-06T11:42:11;0.20;;;0.17;;
51660;SDS011;37741;49.748;8.490;2023-08-06T11:44:37;0.10;;;0.10;;
51660;SDS011;37741;49.748;8.490;2023-08-06T11:47:03;0.50;;;0.30;;
51660;SDS011;37741;49.748;8.490;2023-08-06T11:52:15;0.45;;;0.30;;
51660;SDS011;37741;49.748;8.490;2023-08-06T11:54:46;0.45;;;0.22;;
51660;SDS011;37741;49.748;8.490;2023-08-06T11:57:13;0.35;;;0.20;;
51660;SDS011;37741;49.748;8.490;2023-08-06T11:59:40;0.30;;;0.20;;
51660;SDS011;37741;49.748;8.490;2023-08-06T12:02:07;2.20;;;0.40;;
51660;SDS011;37741;49.748;8.490;2023-08-06T12:07:30;0.68;;;0.30;;
51660;SDS011;37741;49.748;8.490;2023-08-06T12:09:58;0.57;;;0.25;;
51660;SDS011;37741;49.748;8.490;2023-08-06T12:12:24;0.65;;;0.40;;
51660;SDS011;37741;49.748;8.490;2023-08-06T12:14:50;2.80;;;0.30;;
51660;SDS011;37741;49.748;8.490;2023-08-06T12:17:16;1.02;;;0.40;;
51660;SDS011;37741;49.748;8.490;2023-08-06T12:19:41;0.80;;;0.35;;
51660;SDS011;37741;49.748;8.490;2023-08-06T12:22:09;0.68;;;0.30;;
51660;SDS011;37741;49.748;8.490;2023-08-06T12:24:35;0.63;;;0.30;;
51660;SDS011;37741;49.748;8.490;2023-08-06T12:27:00;1.13;;;0.50;;
51660;SDS011;37741;49.748;8.490;2023-08-06T12:29:27;1.00;;;0.63;;
51660;SDS011;37741;49.748;8.490;2023-08-06T12:31:53;1.60;;;0.47;;
51660;SDS011;37741;49.748;8.490;2023-08-06T12:34:19;1.48;;;0.50;;
51660;SDS011;37741;49.748;8.490;2023-08-06T12:36:44;1.10;;;0.45;;
51660;SDS011;37741;49.748;8.490;2023-08-06T12:39:10;1.17;;;0.50;;
51660;SDS011;37741;49.748;8.490;2023-08-06T12:41:35;0.68;;;0.35;;
51660;SDS011;37741;49.748;8.490;2023-08-06T12:44:01;2.03;;;0.50;;
51660;SDS011;37741;49.748;8.490;2023-08-06T12:46:27;2.88;;;0.60;;
51660;SDS011;37741;49.748;8.490;2023-08-06T12:48:52;0.70;;;0.40;;
51660;SDS011;37741;49.748;8.490;2023-08-06T12:51:18;0.90;;;0.50;;
51660;SDS011;37741;49.748;8.490;2023-08-06T12:53:43;1.55;;;0.50;;
51660;SDS011;37741;49.748;8.490;2023-08-06T12:56:09;1.33;;;0.40;;
51660;SDS011;37741;49.748;8.490;2023-08-06T12:58:34;0.90;;;0.50;;
51660;SDS011;37741;49.748;8.490;2023-08-06T13:01:01;2.78;;;0.40;;
51660;SDS011;37741;49.748;8.490;2023-08-06T13:03:27;0.88;;;0.43;;
51660;SDS011;37741;49.748;8.490;2023-08-06T13:05:52;0.98;;;0.50;;
51660;SDS011;37741;49.748;8.490;2023-08-06T13:08:18;2.80;;;0.63;;
51660;SDS011;37741;49.748;8.490;2023-08-06T13:10:44;1.60;;;0.52;;
51660;SDS011;37741;49.748;8.490;2023-08-06T13:13:09;0.57;;;0.50;;
51660;SDS011;37741;49.748;8.490;2023-08-06T13:15:35;2.03;;;0.70;;
51660;SDS011;37741;49.748;8.490;2023-08-06T13:18:01;0.95;;;0.43;;
51660;SDS011;37741;49.748;8.490;2023-08-06T13:20:26;0.50;;;0.30;;
51660;SDS011;37741;49.748;8.490;2023-08-06T13:22:55;2.33;;;0.70;;
51660;SDS011;37741;49.748;8.490;2023-08-06T13:25:20;1.48;;;0.40;;
51660;SDS011;37741;49.748;8.490;2023-08-06T13:27:46;1.30;;;0.60;;
51660;SDS011;37741;49.748;8.490;2023-08-06T13:30:12;1.42;;;0.50;;
51660;SDS011;37741;49.748;8.490;2023-08-06T13:32:38;1.13;;;0.50;;
51660;SDS011;37741;49.748;8.490;2023-08-06T13:35:04;1.33;;;0.50;;
51660;SDS011;37741;49.748;8.490;2023-08-06T13:37:30;1.02;;;0.50;;
51660;SDS011;37741;49.748;8.490;2023-08-06T13:39:55;1.20;;;0.40;;
51660;SDS011;37741;49.748;8.490;2023-08-06T13:42:21;0.93;;;0.38;;
51660;SDS011;37741;49.748;8.490;2023-08-06T13:44:47;1.42;;;0.52;;
51660;SDS011;37741;49.748;8.490;2023-08-06T13:47:12;0.73;;;0.30;;
51660;SDS011;37741;49.748;8.490;2023-08-06T13:49:38;2.40;;;0.50;;
51660;SDS011;37741;49.748;8.490;2023-08-06T13:52:04;1.05;;;0.30;;
51660;SDS011;37741;49.748;8.490;2023-08-06T13:54:30;1.08;;;0.50;;
51660;SDS011;37741;49.748;8.490;2023-08-06T13:56:55;3.08;;;0.70;;
51660;SDS011;37741;49.748;8.490;2023-08-06T13:59:21;1.10;;;0.65;;
51660;SDS011;37741;49.748;8.490;2023-08-06T14:01:49;1.63;;;0.30;;
51660;SDS011;37741;49.748;8.490;2023-08-06T14:04:15;1.45;;;0.40;;
51660;SDS011;37741;49.748;8.490;2023-08-06T14:06:40;1.33;;;0.40;;
51660;SDS011;37741;49.748;8.490;2023-08-06T14:09:06;1.23;;;0.43;;
51660;SDS011;37741;49.748;8.490;2023-08-06T14:11:32;1.63;;;0.50;;
51660;SDS011;37741;49.748;8.490;2023-08-06T14:13:58;0.85;;;0.40;;
51660;SDS011;37741;49.748;8.490;2023-08-06T14:16:25;1.10;;;0.50;;
51660;SDS011;37741;49.748;8.490;2023-08-06T14:18:50;0.52;;;0.30;;
51660;SDS011;37741;49.748;8.490;2023-08-06T14:21:16;2.35;;;0.57;;
51660;SDS011;37741;49.748;8.490;2023-08-06T14:23:41;0.77;;;0.40;;
51660;SDS011;37741;49.748;8.490;2023-08-06T14:26:07;2.00;;;1.02;;
51660;SDS011;37741;49.748;8.490;2023-08-06T14:28:35;0.47;;;0.30;;
51660;SDS011;37741;49.748;8.490;2023-08-06T14:31:01;1.85;;;0.80;;
51660;SDS011;37741;49.748;8.490;2023-08-06T14:33:27;1.17;;;0.50;;
51660;SDS011;37741;49.748;8.490;2023-08-06T14:35:52;0.98;;;0.40;;
51660;SDS011;37741;49.748;8.490;2023-08-06T14:38:18;0.57;;;0.40;;
51660;SDS011;37741;49.748;8.490;2023-08-06T14:40:44;0.73;;;0.40;;
51660;SDS011;37741;49.748;8.490;2023-08-06T14:43:09;1.10;;;0.40;;
51660;SDS011;37741;49.748;8.490;2023-08-06T14:45:38;0.52;;;0.30;;
51660;SDS011;37741;49.748;8.490;2023-08-06T14:48:05;0.65;;;0.30;;
51660;SDS011;37741;49.748;8.490;2023-08-06T14:50:31;1.33;;;0.57;;
51660;SDS011;37741;49.748;8.490;2023-08-06T14:52:57;0.70;;;0.32;;
51660;SDS011;37741;49.748;8.490;2023-08-06T14:55:23;0.88;;;0.25;;
51660;SDS011;37741;49.748;8.490;2023-08-06T14:57:52;1.38;;;0.40;;
51660;SDS011;37741;49.748;8.490;2023-08-06T15:00:18;0.70;;;0.30;;
51660;SDS011;37741;49.748;8.490;2023-08-06T15:02:45;1.77;;;0.43;;
51660;SDS011;37741;49.748;8.490;2023-08-06T15:05:11;0.73;;;0.30;;